sensor_id;sensor_type;location;lat;lon;timestamp;pressure;altitude;pressure_sealevel;temperature;humidity
8061;BME280;4073;42.626;25.386;2023-03-22T00:00:34;96821.81;;;12.30;93.44
8061;BME280;4073;42.626;25.386;2023-03-22T00:03:00;96812.09;;;12.34;93.26
8061;BME280;4073;42.626;25.386;2023-03-22T00:05:26;96815.00;;;12.37;93.00
8061;BME280;4073;42.626;25.386;2023-03-22T00:07:51;96813.91;;;12.38;92.83
8061;BME280;4073;42.626;25.386;2023-03-22T00:10:25;96806.09;;;12.42;92.97
8061;BME280;4073;42.626;25.386;2023-03-22T00:12:53;96804.72;;;12.44;92.36
8061;BME280;4073;42.626;25.386;2023-03-22T00:15:19;96805.50;;;12.45;92.90
8061;BME280;4073;42.626;25.386;2023-03-22T00:17:45;96802.31;;;12.43;93.46
8061;BME280;4073;42.626;25.386;2023-03-22T00:20:11;96802.75;;;12.31;94.52
8061;BME280;4073;42.626;25.386;2023-03-22T00:22:39;96806.31;;;12.27;96.13
8061;BME280;4073;42.626;25.386;2023-03-22T00:25:05;96798.34;;;12.22;97.15
8061;BME280;4073;42.626;25.386;2023-03-22T00:27:31;96796.16;;;12.24;97.77
8061;BME280;4073;42.626;25.386;2023-03-22T00:29:56;96803.16;;;12.25;98.08
8061;BME280;4073;42.626;25.386;2023-03-22T00:32:22;96796.75;;;12.21;98.02
8061;BME280;4073;42.626;25.386;2023-03-22T00:34:47;96795.09;;;12.25;98.07
8061;BME280;4073;42.626;25.386;2023-03-22T00:37:13;96789.38;;;12.31;98.27
8061;BME280;4073;42.626;25.386;2023-03-22T00:39:40;96793.91;;;12.31;98.43
8061;BME280;4073;42.626;25.386;2023-03-22T00:42:06;96790.38;;;12.35;99.09
8061;BME280;4073;42.626;25.386;2023-03-22T00:44:31;96790.75;;;12.29;100.00
8061;BME280;4073;42.626;25.386;2023-03-22T00:46:57;96790.09;;;12.18;100.00
8061;BME280;4073;42.626;25.386;2023-03-22T00:49:23;96793.94;;;12.12;100.00
8061;BME280;4073;42.626;25.386;2023-03-22T00:51:49;96792.44;;;12.06;100.00
8061;BME280;4073;42.626;25.386;2023-03-22T00:54:15;96798.94;;;12.00;100.00
8061;BME280;4073;42.626;25.386;2023-03-22T00:56:42;96796.03;;;11.97;100.00
8061;BME280;4073;42.626;25.386;2023-03-22T00:59:10;96794.72;;;11.94;100.00
8061;BME280;4073;42.626;25.386;2023-03-22T01:01:36;96794.53;;;11.91;100.00
8061;BME280;4073;42.626;25.386;2023-03-22T01:04:02;96791.84;;;11.91;100.00
8061;BME280;4073;42.626;25.386;2023-03-22T01:06:29;96794.53;;;11.91;100.00
8061;BME280;4073;42.626;25.386;2023-03-22T01:08:55;96786.50;;;11.91;100.00
8061;BME280;4073;42.626;25.386;2023-03-22T01:11:22;96783.00;;;11.90;100.00
8061;BME280;4073;42.626;25.386;2023-03-22T01:13:47;96788.34;;;11.90;100.00
8061;BME280;4073;42.626;25.386;2023-03-22T01:16:13;96789.94;;;11.91;100.00
8061;BME280;4073;42.626;25.386;2023-03-22T01:18:39;96795.22;;;11.78;100.00
8061;BME280;4073;42.626;25.386;2023-03-22T01:21:05;96788.19;;;11.58;100.00
8061;BME280;4073;42.626;25.386;2023-03-22T01:23:30;96781.75;;;11.41;100.00
8061;BME280;4073;42.626;25.386;2023-03-22T01:25:56;96791.16;;;11.38;100.00
8061;BME280;4073;42.626;25.386;2023-03-22T01:28:21;96797.34;;;11.34;100.00
8061;BME280;4073;42.626;25.386;2023-03-22T01:30:47;96796.38;;;11.25;100.00
8061;BME280;4073;42.626;25.386;2023-03-22T01:33:12;96792.66;;;11.21;100.00
8061;BME280;4073;42.626;25.386;2023-03-22T01:35:38;96794.72;;;11.05;100.00
8061;BME280;4073;42.626;25.386;2023-03-22T01:38:03;96787.91;;;10.89;100.00
8061;BME280;4073;42.626;25.386;2023-03-22T01:40:30;96787.72;;;10.81;100.00
8061;BME280;4073;42.626;25.386;2023-03-22T01:42:56;96781.16;;;10.68;100.00
8061;BME280;4073;42.626;25.386;2023-03-22T01:48:09;96779.28;;;10.69;100.00
8061;BME280;4073;42.626;25.386;2023-03-22T01:50:37;96773.78;;;10.55;100.00
8061;BME280;4073;42.626;25.386;2023-03-22T01:53:04;96785.47;;;10.64;100.00
8061;BME280;4073;42.626;25.386;2023-03-22T01:55:31;96781.72;;;10.65;100.00
8061;BME280;4073;42.626;25.386;2023-03-22T01:57:58;96782.28;;;10.62;100.00
8061;BME280;4073;42.626;25.386;2023-03-22T02:00:25;96795.63;;;10.67;100.00
8061;BME280;4073;42.626;25.386;2023-03-22T02:02:51;96796.66;;;10.66;100.00
8061;BME280;4073;42.626;25.386;2023-03-22T02:05:18;96803.38;;;10.64;100.00
8061;BME280;4073;42.626;25.386;2023-03-22T02:07:47;96783.09;;;10.63;100.00
8061;BME280;4073;42.626;25.386;2023-03-22T02:10:22;96793.22;;;10.66;100.00
8061;BME280;4073;42.626;25.386;2023-03-22T02:13:09;96791.88;;;10.63;100.00
8061;BME280;4073;42.626;25.386;2023-03-22T02:15:55;96790.75;;;10.69;100.00
8061;BME280;4073;42.626;25.386;2023-03-22T02:21:52;96776.63;;;10.69;100.00
8061;BME280;4073;42.626;25.386;2023-03-22T02:46:47;96776.72;;;11.11;100.00
8061;BME280;4073;42.626;25.386;2023-03-22T02:49:24;96793.97;;;11.23;100.00
8061;BME280;4073;42.626;25.386;2023-03-22T02:52:01;96800.34;;;11.27;100.00
8061;BME280;4073;42.626;25.386;2023-03-22T02:54:41;96797.94;;;11.26;100.00
8061;BME280;4073;42.626;25.386;2023-03-22T02:57:09;96789.72;;;11.22;100.00
8061;BME280;4073;42.626;25.386;2023-03-22T02:59:39;96786.75;;;11.24;100.00
8061;BME280;4073;42.626;25.386;2023-03-22T03:02:08;96783.78;;;11.25;100.00
8061;BME280;4073;42.626;25.386;2023-03-22T03:04:39;96794.22;;;11.27;100.00
8061;BME280;4073;42.626;25.386;2023-03-22T03:07:08;96790.97;;;11.30;100.00
8061;BME280;4073;42.626;25.386;2023-03-22T03:09:37;96805.13;;;11.30;100.00
8061;BME280;4073;42.626;25.386;2023-03-22T03:12:12;96802.69;;;11.34;100.00
8061;BME280;4073;42.626;25.386;2023-03-22T03:14:38;96796.81;;;11.32;100.00
8061;BME280;4073;42.626;25.386;2023-03-22T03:28:01;96796.66;;;11.23;100.00
8061;BME280;4073;42.626;25.386;2023-03-22T03:30:59;96800.97;;;11.19;100.00
8061;BME280;4073;42.626;25.386;2023-03-22T03:33:25;96788.16;;;11.16;100.00
8061;BME280;4073;42.626;25.386;2023-03-22T03:35:57;96782.91;;;11.06;100.00
8061;BME280;4073;42.626;25.386;2023-03-22T03:38:28;96776.09;;;10.95;100.00
8061;BME280;4073;42.626;25.386;2023-03-22T03:40:59;96778.78;;;10.90;100.00
8061;BME280;4073;42.626;25.386;2023-03-22T03:43:26;96766.06;;;10.82;100.00
8061;BME280;4073;42.626;25.386;2023-03-22T03:45:53;96757.03;;;10.73;100.00
8061;BME280;4073;42.626;25.386;2023-03-22T03:48:25;96758.66;;;10.74;100.00
8061;BME280;4073;42.626;25.386;2023-03-22T03:50:53;96747.16;;;10.74;100.00
8061;BME280;4073;42.626;25.386;2023-03-22T03:53:20;96754.16;;;10.70;100.00
8061;BME280;4073;42.626;25.386;2023-03-22T03:55:45;96759.22;;;10.71;100.00
8061;BME280;4073;42.626;25.386;2023-03-22T03:58:10;96769.91;;;10.71;100.00
8061;BME280;4073;42.626;25.386;2023-03-22T04:00:36;96765.41;;;10.67;100.00
8061;BME280;4073;42.626;25.386;2023-03-22T04:03:03;96789.13;;;10.73;100.00
8061;BME280;4073;42.626;25.386;2023-03-22T04:05:30;96783.22;;;10.76;100.00
8061;BME280;4073;42.626;25.386;2023-03-22T04:07:55;96780.53;;;10.76;100.00
8061;BME280;4073;42.626;25.386;2023-03-22T04:10:20;96778.69;;;10.77;100.00
8061;BME280;4073;42.626;25.386;2023-03-22T04:12:46;96788.25;;;10.83;100.00
8061;BME280;4073;42.626;25.386;2023-03-22T04:15:11;96802.88;;;10.90;100.00
8061;BME280;4073;42.626;25.386;2023-03-22T04:17:38;96792.91;;;10.96;100.00
8061;BME280;4073;42.626;25.386;2023-03-22T04:20:05;96795.03;;;10.99;100.00
8061;BME280;4073;42.626;25.386;2023-03-22T04:22:31;96799.53;;;11.03;100.00
8061;BME280;4073;42.626;25.386;2023-03-22T04:24:59;96800.63;;;11.02;100.00
8061;BME280;4073;42.626;25.386;2023-03-22T04:27:26;96799.81;;;11.02;100.00
8061;BME280;4073;42.626;25.386;2023-03-22T04:29:52;96802.72;;;11.05;100.00
8061;BME280;4073;42.626;25.386;2023-03-22T04:32:19;96798.97;;;11.06;100.00
8061;BME280;4073;42.626;25.386;2023-03-22T04:34:49;96801.44;;;11.03;100.00
8061;BME280;4073;42.626;25.386;2023-03-22T04:37:15;96800.84;;;11.06;100.00
8061;BME280;4073;42.626;25.386;2023-03-22T04:39:42;96801.94;;;11.05;100.00
8061;BME280;4073;42.626;25.386;2023-03-22T04:42:07;96802.75;;;11.00;100.00
8061;BME280;4073;42.626;25.386;2023-03-22T04:44:34;96801.72;;;11.01;100.00
8061;BME280;4073;42.626;25.386;2023-03-22T04:47:00;96806.50;;;11.04;100.00
8061;BME280;4073;42.626;25.386;2023-03-22T04:49:25;96798.22;;;11.01;100.00
8061;BME280;4073;42.626;25.386;2023-03-22T04:51:53;96816.56;;;11.12;100.00
8061;BME280;4073;42.626;25.386;2023-03-22T04:54:18;96816.84;;;11.11;100.00
8061;BME280;4073;42.626;25.386;2023-03-22T04:56:44;96817.13;;;11.09;100.00
8061;BME280;4073;42.626;25.386;2023-03-22T04:59:10;96817.13;;;11.09;100.00
8061;BME280;4073;42.626;25.386;2023-03-22T05:04:20;96824.31;;;11.14;100.00
8061;BME280;4073;42.626;25.386;2023-03-22T05:06:45;96827.78;;;11.14;100.00
8061;BME280;4073;42.626;25.386;2023-03-22T05:09:11;96820.06;;;11.13;100.00
8061;BME280;4073;42.626;25.386;2023-03-22T05:11:37;96824.81;;;11.16;100.00
8061;BME280;4073;42.626;25.386;2023-03-22T05:14:05;96839.34;;;11.10;100.00
8061;BME280;4073;42.626;25.386;2023-03-22T05:16:30;96849.06;;;10.96;100.00
8061;BME280;4073;42.626;25.386;2023-03-22T05:18:56;96851.00;;;10.90;100.00
8061;BME280;4073;42.626;25.386;2023-03-22T05:21:23;96856.06;;;10.92;100.00
8061;BME280;4073;42.626;25.386;2023-03-22T05:23:56;96850.13;;;11.00;100.00
8061;BME280;4073;42.626;25.386;2023-03-22T05:26:25;96857.69;;;10.93;100.00
8061;BME280;4073;42.626;25.386;2023-03-22T05:28:52;96853.31;;;11.02;100.00
8061;BME280;4073;42.626;25.386;2023-03-22T05:31:19;96874.91;;;11.10;100.00
8061;BME280;4073;42.626;25.386;2023-03-22T05:33:49;96868.78;;;11.10;100.00
8061;BME280;4073;42.626;25.386;2023-03-22T05:36:20;96866.28;;;11.18;100.00
8061;BME280;4073;42.626;25.386;2023-03-22T05:38:47;96871.53;;;11.28;100.00
8061;BME280;4073;42.626;25.386;2023-03-22T05:41:13;96879.75;;;11.37;100.00
8061;BME280;4073;42.626;25.386;2023-03-22T05:43:39;96876.19;;;11.41;100.00
8061;BME280;4073;42.626;25.386;2023-03-22T05:46:06;96886.31;;;11.49;100.00
8061;BME280;4073;42.626;25.386;2023-03-22T05:48:32;96887.03;;;11.55;100.00
8061;BME280;4073;42.626;25.386;2023-03-22T05:50:57;96892.41;;;11.55;100.00
8061;BME280;4073;42.626;25.386;2023-03-22T05:53:23;96889.66;;;11.60;100.00
8061;BME280;4073;42.626;25.386;2023-03-22T05:55:48;96886.16;;;11.64;100.00
8061;BME280;4073;42.626;25.386;2023-03-22T05:58:14;96888.28;;;11.67;100.00
8061;BME280;4073;42.626;25.386;2023-03-22T06:00:46;96887.69;;;11.70;100.00
8061;BME280;4073;42.626;25.386;2023-03-22T06:03:14;96897.56;;;11.75;100.00
8061;BME280;4073;42.626;25.386;2023-03-22T06:05:39;96894.59;;;11.76;100.00
8061;BME280;4073;42.626;25.386;2023-03-22T06:08:05;96901.25;;;11.79;100.00
8061;BME280;4073;42.626;25.386;2023-03-22T06:10:30;96896.94;;;11.83;100.00
8061;BME280;4073;42.626;25.386;2023-03-22T06:12:56;96895.84;;;11.84;100.00
8061;BME280;4073;42.626;25.386;2023-03-22T06:15:21;96887.06;;;11.78;100.00
8061;BME280;4073;42.626;25.386;2023-03-22T06:17:47;96908.38;;;11.88;100.00
8061;BME280;4073;42.626;25.386;2023-03-22T06:20:13;96890.53;;;11.79;100.00
8061;BME280;4073;42.626;25.386;2023-03-22T06:22:40;96903.81;;;11.89;100.00
8061;BME280;4073;42.626;25.386;2023-03-22T06:25:06;96904.97;;;11.83;100.00
8061;BME280;4073;42.626;25.386;2023-03-22T06:27:32;96912.72;;;11.84;100.00
8061;BME280;4073;42.626;25.386;2023-03-22T06:29:58;96906.84;;;11.82;100.00
8061;BME280;4073;42.626;25.386;2023-03-22T06:32:24;96911.69;;;11.80;100.00
8061;BME280;4073;42.626;25.386;2023-03-22T06:34:51;96912.16;;;11.87;100.00
8061;BME280;4073;42.626;25.386;2023-03-22T06:37:17;96917.44;;;11.92;100.00
8061;BME280;4073;42.626;25.386;2023-03-22T06:39:42;96917.66;;;11.96;100.00
8061;BME280;4073;42.626;25.386;2023-03-22T06:42:08;96917.59;;;12.01;100.00
8061;BME280;4073;42.626;25.386;2023-03-22T06:44:33;96919.41;;;12.05;100.00
8061;BME280;4073;42.626;25.386;2023-03-22T06:46:59;96921.81;;;12.07;100.00
8061;BME280;4073;42.626;25.386;2023-03-22T06:49:24;96931.22;;;12.04;100.00
8061;BME280;4073;42.626;25.386;2023-03-22T06:51:52;96937.69;;;12.03;100.00
8061;BME280;4073;42.626;25.386;2023-03-22T06:54:17;96938.19;;;12.05;100.00
8061;BME280;4073;42.626;25.386;2023-03-22T06:56:43;96937.41;;;12.05;100.00
8061;BME280;4073;42.626;25.386;2023-03-22T06:59:09;96941.41;;;12.02;100.00
8061;BME280;4073;42.626;25.386;2023-03-22T07:01:34;96942.19;;;12.08;100.00
8061;BME280;4073;42.626;25.386;2023-03-22T07:04:00;96943.78;;;12.09;100.00
8061;BME280;4073;42.626;25.386;2023-03-22T07:06:25;96936.03;;;12.07;100.00
8061;BME280;4073;42.626;25.386;2023-03-22T07:08:51;96941.59;;;12.11;100.00
8061;BME280;4073;42.626;25.386;2023-03-22T07:11:16;96947.19;;;12.14;100.00
8061;BME280;4073;42.626;25.386;2023-03-22T07:13:42;96942.34;;;12.16;100.00
8061;BME280;4073;42.626;25.386;2023-03-22T07:16:09;96942.78;;;12.23;100.00
8061;BME280;4073;42.626;25.386;2023-03-22T07:18:34;96940.97;;;12.19;100.00
8061;BME280;4073;42.626;25.386;2023-03-22T07:21:00;96947.09;;;12.19;100.00
8061;BME280;4073;42.626;25.386;2023-03-22T07:23:26;96944.72;;;12.18;100.00
8061;BME280;4073;42.626;25.386;2023-03-22T07:25:51;96930.88;;;12.11;100.00
8061;BME280;4073;42.626;25.386;2023-03-22T07:28:20;96949.59;;;12.16;100.00
8061;BME280;4073;42.626;25.386;2023-03-22T07:30:45;96942.34;;;12.16;100.00
8061;BME280;4073;42.626;25.386;2023-03-22T07:33:11;96943.50;;;12.10;100.00
8061;BME280;4073;42.626;25.386;2023-03-22T07:35:37;96943.53;;;12.05;100.00
8061;BME280;4073;42.626;25.386;2023-03-22T07:38:03;96954.53;;;12.04;100.00
8061;BME280;4073;42.626;25.386;2023-03-22T07:40:29;96958.13;;;12.18;100.00
8061;BME280;4073;42.626;25.386;2023-03-22T07:42:55;96942.56;;;12.20;100.00
8061;BME280;4073;42.626;25.386;2023-03-22T07:45:21;96954.97;;;12.34;100.00
8061;BME280;4073;42.626;25.386;2023-03-22T07:47:46;96948.97;;;12.42;100.00
8061;BME280;4073;42.626;25.386;2023-03-22T07:50:12;96953.47;;;12.47;100.00
8061;BME280;4073;42.626;25.386;2023-03-22T07:52:41;96944.84;;;12.50;100.00
8061;BME280;4073;42.626;25.386;2023-03-22T07:55:10;96945.38;;;12.52;100.00
8061;BME280;4073;42.626;25.386;2023-03-22T07:57:36;96936.84;;;12.45;100.00
8061;BME280;4073;42.626;25.386;2023-03-22T08:00:03;96940.06;;;12.47;100.00
8061;BME280;4073;42.626;25.386;2023-03-22T08:02:30;96944.47;;;12.56;100.00
8061;BME280;4073;42.626;25.386;2023-03-22T08:04:56;96945.66;;;12.69;100.00
8061;BME280;4073;42.626;25.386;2023-03-22T08:07:21;96956.88;;;12.71;100.00
8061;BME280;4073;42.626;25.386;2023-03-22T08:09:49;96973.41;;;12.78;100.00
8061;BME280;4073;42.626;25.386;2023-03-22T08:12:15;96974.13;;;12.83;100.00
8061;BME280;4073;42.626;25.386;2023-03-22T08:14:40;96969.28;;;12.85;100.00
8061;BME280;4073;42.626;25.386;2023-03-22T08:17:05;96972.69;;;12.91;100.00
8061;BME280;4073;42.626;25.386;2023-03-22T08:19:32;96977.19;;;12.95;100.00
8061;BME280;4073;42.626;25.386;2023-03-22T08:21:58;96980.38;;;12.97;100.00
8061;BME280;4073;42.626;25.386;2023-03-22T08:24:24;96984.16;;;12.96;100.00
8061;BME280;4073;42.626;25.386;2023-03-22T08:26:51;96984.16;;;12.96;100.00
8061;BME280;4073;42.626;25.386;2023-03-22T08:29:17;96982.00;;;12.98;100.00
8061;BME280;4073;42.626;25.386;2023-03-22T08:31:44;96982.66;;;13.09;100.00
8061;BME280;4073;42.626;25.386;2023-03-22T08:34:09;96987.66;;;13.16;100.00
8061;BME280;4073;42.626;25.386;2023-03-22T08:36:36;96991.91;;;12.98;100.00
8061;BME280;4073;42.626;25.386;2023-03-22T08:39:01;96991.25;;;12.69;100.00
8061;BME280;4073;42.626;25.386;2023-03-22T08:41:29;97018.06;;;12.27;100.00
8061;BME280;4073;42.626;25.386;2023-03-22T08:43:54;97014.97;;;11.91;100.00
8061;BME280;4073;42.626;25.386;2023-03-22T08:46:20;97014.03;;;11.77;100.00
8061;BME280;4073;42.626;25.386;2023-03-22T08:48:45;97004.31;;;11.86;100.00
8061;BME280;4073;42.626;25.386;2023-03-22T08:51:23;96998.31;;;12.18;100.00
8061;BME280;4073;42.626;25.386;2023-03-22T08:53:48;96992.28;;;12.73;100.00
8061;BME280;4073;42.626;25.386;2023-03-22T08:56:14;96999.31;;;13.25;100.00
8061;BME280;4073;42.626;25.386;2023-03-22T08:58:45;97008.47;;;13.88;100.00
8061;BME280;4073;42.626;25.386;2023-03-22T09:01:12;97003.34;;;14.32;100.00
8061;BME280;4073;42.626;25.386;2023-03-22T09:03:38;96998.00;;;14.81;100.00
8061;BME280;4073;42.626;25.386;2023-03-22T09:06:04;96990.13;;;15.20;100.00
8061;BME280;4073;42.626;25.386;2023-03-22T09:08:29;96991.28;;;15.41;100.00
8061;BME280;4073;42.626;25.386;2023-03-22T09:10:55;96999.78;;;15.79;97.30
8061;BME280;4073;42.626;25.386;2023-03-22T09:13:20;97009.59;;;16.05;95.64
8061;BME280;4073;42.626;25.386;2023-03-22T09:15:46;97005.50;;;16.16;93.56
8061;BME280;4073;42.626;25.386;2023-03-22T09:18:12;97005.41;;;16.69;90.53
8061;BME280;4073;42.626;25.386;2023-03-22T09:20:38;97000.25;;;17.15;84.43
8061;BME280;4073;42.626;25.386;2023-03-22T09:23:04;97014.69;;;17.70;79.51
8061;BME280;4073;42.626;25.386;2023-03-22T09:25:29;96992.81;;;18.09;72.98
8061;BME280;4073;42.626;25.386;2023-03-22T09:27:55;96998.38;;;18.59;71.99
8061;BME280;4073;42.626;25.386;2023-03-22T09:30:21;96997.16;;;18.97;72.58
8061;BME280;4073;42.626;25.386;2023-03-22T09:32:46;96970.59;;;18.91;69.06
8061;BME280;4073;42.626;25.386;2023-03-22T09:35:12;96987.59;;;19.00;70.92
8061;BME280;4073;42.626;25.386;2023-03-22T09:37:37;96987.34;;;18.64;71.67
8061;BME280;4073;42.626;25.386;2023-03-22T09:40:04;96990.78;;;18.35;73.39
8061;BME280;4073;42.626;25.386;2023-03-22T09:42:51;96994.22;;;18.15;71.76
8061;BME280;4073;42.626;25.386;2023-03-22T09:45:21;96988.72;;;18.32;72.45
8061;BME280;4073;42.626;25.386;2023-03-22T09:47:53;96985.38;;;18.44;68.98
8061;BME280;4073;42.626;25.386;2023-03-22T09:50:25;96981.22;;;18.46;66.10
8061;BME280;4073;42.626;25.386;2023-03-22T09:52:52;96986.34;;;18.31;68.73
8061;BME280;4073;42.626;25.386;2023-03-22T09:56:00;96982.97;;;18.05;67.04
8061;BME280;4073;42.626;25.386;2023-03-22T09:58:47;96988.72;;;17.94;66.35
8061;BME280;4073;42.626;25.386;2023-03-22T10:01:35;96987.41;;;18.00;67.92
8061;BME280;4073;42.626;25.386;2023-03-22T10:07:30;96993.50;;;17.98;63.13
8061;BME280;4073;42.626;25.386;2023-03-22T10:10:18;96991.00;;;17.67;67.36
8061;BME280;4073;42.626;25.386;2023-03-22T10:15:34;96993.22;;;17.14;66.06
8061;BME280;4073;42.626;25.386;2023-03-22T10:18:04;96994.94;;;16.84;67.10
8061;BME280;4073;42.626;25.386;2023-03-22T10:20:44;96996.59;;;16.46;73.61
8061;BME280;4073;42.626;25.386;2023-03-22T10:23:16;96993.47;;;16.22;76.43
8061;BME280;4073;42.626;25.386;2023-03-22T10:25:45;96996.19;;;15.92;78.69
8061;BME280;4073;42.626;25.386;2023-03-22T10:28:38;96999.63;;;15.53;77.57
8061;BME280;4073;42.626;25.386;2023-03-22T10:31:05;96994.09;;;15.36;78.30
8061;BME280;4073;42.626;25.386;2023-03-22T10:33:42;96992.22;;;15.23;77.87
8061;BME280;4073;42.626;25.386;2023-03-22T10:36:16;96988.13;;;15.03;80.88
8061;BME280;4073;42.626;25.386;2023-03-22T10:38:47;96971.97;;;15.03;80.71
8061;BME280;4073;42.626;25.386;2023-03-22T10:41:15;96984.78;;;15.06;81.42
8061;BME280;4073;42.626;25.386;2023-03-22T10:43:43;96972.56;;;15.22;81.16
8061;BME280;4073;42.626;25.386;2023-03-22T10:46:17;96981.16;;;15.24;78.54
8061;BME280;4073;42.626;25.386;2023-03-22T10:48:44;96978.16;;;15.48;77.72
8061;BME280;4073;42.626;25.386;2023-03-22T10:51:20;96972.47;;;15.72;75.98
8061;BME280;4073;42.626;25.386;2023-03-22T10:53:52;96978.88;;;15.84;71.46
8061;BME280;4073;42.626;25.386;2023-03-22T10:56:19;96988.94;;;16.01;69.39
8061;BME280;4073;42.626;25.386;2023-03-22T10:58:46;96970.75;;;16.15;71.03
8061;BME280;4073;42.626;25.386;2023-03-22T11:01:14;96967.63;;;16.21;67.58
8061;BME280;4073;42.626;25.386;2023-03-22T11:03:49;96980.97;;;16.35;65.05
8061;BME280;4073;42.626;25.386;2023-03-22T11:06:18;96974.94;;;16.29;64.20
8061;BME280;4073;42.626;25.386;2023-03-22T11:08:46;96976.22;;;16.32;64.49
8061;BME280;4073;42.626;25.386;2023-03-22T11:11:57;96978.19;;;16.09;65.44
8061;BME280;4073;42.626;25.386;2023-03-22T11:14:40;96972.22;;;16.21;64.71
8061;BME280;4073;42.626;25.386;2023-03-22T11:17:17;96975.66;;;16.43;64.83
8061;BME280;4073;42.626;25.386;2023-03-22T11:19:56;96963.13;;;16.56;62.92
8061;BME280;4073;42.626;25.386;2023-03-22T11:24:58;96966.06;;;17.02;60.24
8061;BME280;4073;42.626;25.386;2023-03-22T11:27:27;96969.41;;;17.16;56.73
8061;BME280;4073;42.626;25.386;2023-03-22T11:29:58;96960.34;;;17.12;56.96
8061;BME280;4073;42.626;25.386;2023-03-22T11:32:29;96961.47;;;17.36;54.46
8061;BME280;4073;42.626;25.386;2023-03-22T11:35:11;96956.38;;;17.52;54.85
8061;BME280;4073;42.626;25.386;2023-03-22T11:37:41;96965.75;;;17.54;53.84
8061;BME280;4073;42.626;25.386;2023-03-22T11:40:13;96960.97;;;17.34;54.69
8061;BME280;4073;42.626;25.386;2023-03-22T11:42:40;96948.28;;;17.26;55.56
8061;BME280;4073;42.626;25.386;2023-03-22T11:45:07;96941.28;;;17.00;57.39
8061;BME280;4073;42.626;25.386;2023-03-22T11:47:36;96948.72;;;16.69;60.77
8061;BME280;4073;42.626;25.386;2023-03-22T11:50:08;96945.97;;;16.43;63.21
8061;BME280;4073;42.626;25.386;2023-03-22T11:52:46;96942.97;;;16.06;65.61
8061;BME280;4073;42.626;25.386;2023-03-22T11:55:14;96952.53;;;15.81;67.09
8061;BME280;4073;42.626;25.386;2023-03-22T11:57:40;96947.16;;;15.59;68.60
8061;BME280;4073;42.626;25.386;2023-03-22T12:00:12;96961.25;;;15.34;70.66
8061;BME280;4073;42.626;25.386;2023-03-22T12:02:47;96954.69;;;15.04;74.72
8061;BME280;4073;42.626;25.386;2023-03-22T12:05:20;96956.78;;;14.72;75.94
8061;BME280;4073;42.626;25.386;2023-03-22T12:07:50;96959.31;;;14.55;76.74
8061;BME280;4073;42.626;25.386;2023-03-22T12:10:27;96967.28;;;14.33;78.56
8061;BME280;4073;42.626;25.386;2023-03-22T12:13:03;96961.50;;;14.12;80.79
8061;BME280;4073;42.626;25.386;2023-03-22T12:15:34;96967.75;;;14.21;81.13
8061;BME280;4073;42.626;25.386;2023-03-22T12:18:12;96968.38;;;14.05;82.58
8061;BME280;4073;42.626;25.386;2023-03-22T12:20:55;96968.16;;;14.01;83.97
8061;BME280;4073;42.626;25.386;2023-03-22T12:23:32;96969.00;;;13.56;84.60
8061;BME280;4073;42.626;25.386;2023-03-22T12:29:01;96969.13;;;13.33;89.60
8061;BME280;4073;42.626;25.386;2023-03-22T12:31:35;96978.22;;;13.50;87.30
8061;BME280;4073;42.626;25.386;2023-03-22T12:34:05;96973.47;;;13.61;87.33
8061;BME280;4073;42.626;25.386;2023-03-22T12:36:40;96976.56;;;13.54;86.72
8061;BME280;4073;42.626;25.386;2023-03-22T12:39:08;96980.44;;;13.62;87.32
8061;BME280;4073;42.626;25.386;2023-03-22T12:41:43;96985.19;;;13.51;87.74
8061;BME280;4073;42.626;25.386;2023-03-22T12:44:16;96975.41;;;13.42;92.35
8061;BME280;4073;42.626;25.386;2023-03-22T12:49:27;96979.91;;;13.46;89.08
8061;BME280;4073;42.626;25.386;2023-03-22T12:52:09;96982.97;;;13.40;91.59
8061;BME280;4073;42.626;25.386;2023-03-22T12:54:37;96981.13;;;13.22;94.62
8061;BME280;4073;42.626;25.386;2023-03-22T12:57:04;96982.03;;;13.31;94.31
8061;BME280;4073;42.626;25.386;2023-03-22T12:59:30;96983.81;;;13.22;91.68
8061;BME280;4073;42.626;25.386;2023-03-22T13:02:05;96982.31;;;13.29;93.20
8061;BME280;4073;42.626;25.386;2023-03-22T13:09:53;96975.38;;;12.91;99.23
8061;BME280;4073;42.626;25.386;2023-03-22T13:27:41;96984.00;;;12.69;100.00
8061;BME280;4073;42.626;25.386;2023-03-22T13:30:30;96985.59;;;12.52;100.00
8061;BME280;4073;42.626;25.386;2023-03-22T13:38:06;96973.94;;;12.61;100.00
8061;BME280;4073;42.626;25.386;2023-03-22T13:51:31;96982.28;;;12.97;100.00
8061;BME280;4073;42.626;25.386;2023-03-22T14:10:04;96979.97;;;13.09;100.00
8061;BME280;4073;42.626;25.386;2023-03-22T14:12:51;96972.13;;;13.13;100.00
8061;BME280;4073;42.626;25.386;2023-03-22T14:15:22;96977.94;;;13.20;100.00
8061;BME280;4073;42.626;25.386;2023-03-22T14:17:54;96979.50;;;13.21;100.00
8061;BME280;4073;42.626;25.386;2023-03-22T14:20:22;96981.91;;;13.22;96.54
8061;BME280;4073;42.626;25.386;2023-03-22T14:23:23;96974.94;;;13.21;98.26
8061;BME280;4073;42.626;25.386;2023-03-22T14:25:50;96985.75;;;13.16;95.88
8061;BME280;4073;42.626;25.386;2023-03-22T14:28:33;96981.63;;;13.05;97.24
8061;BME280;4073;42.626;25.386;2023-03-22T14:30:59;96986.28;;;12.99;98.05
8061;BME280;4073;42.626;25.386;2023-03-22T14:33:25;96992.63;;;12.85;98.07
8061;BME280;4073;42.626;25.386;2023-03-22T14:36:00;96983.94;;;12.74;100.00
8061;BME280;4073;42.626;25.386;2023-03-22T14:38:32;96981.59;;;12.68;100.00
8061;BME280;4073;42.626;25.386;2023-03-22T14:43:40;96995.78;;;12.50;100.00
8061;BME280;4073;42.626;25.386;2023-03-22T14:46:13;96965.09;;;12.19;100.00
8061;BME280;4073;42.626;25.386;2023-03-22T14:48:40;96991.94;;;12.14;100.00
8061;BME280;4073;42.626;25.386;2023-03-22T14:51:14;96991.19;;;12.08;100.00
8061;BME280;4073;42.626;25.386;2023-03-22T14:53:43;96997.13;;;12.05;99.82
8061;BME280;4073;42.626;25.386;2023-03-22T14:56:27;96979.81;;;11.98;100.00
8061;BME280;4073;42.626;25.386;2023-03-22T14:58:55;96997.41;;;12.04;100.00
8061;BME280;4073;42.626;25.386;2023-03-22T15:01:26;96996.34;;;12.05;100.00
8061;BME280;4073;42.626;25.386;2023-03-22T15:03:56;96996.63;;;12.03;100.00
8061;BME280;4073;42.626;25.386;2023-03-22T15:06:25;96979.56;;;11.94;100.00